nws-alerts: Checking more than four warning/county codes can delay the loading of your pages. You should use a cron job to get the data.
EllijayWeather Historical Data
Daily Summary for December 21, 2019 Units:  English    Metric   Both
Daily Weekly Monthly Yearly
  High: Low: Average:
Temperature: 51.0 °F 45.0 °F 47.9 °F
Dew Point: 38.0 °F 24.0 °F 31 °F
Humidity: 75% 41% 53%
Wind Speed: 8mph 0mph 0.9mph
Wind Gust: 8mph - -
Wind- - SE
Pressure: 30.6 in 30.4 in -
Precipitation: 0.000 in    
 
 
Tabular Data for December 21, 2019
Time Temperature Dew Point Pressure Wind Wind Speed Wind Gust Humidity Rainfall Rate (Hourly)
00:04 47.0 °F 30.0 °F 30.6 in Calm     52% 0.000 in
00:09 47.0 °F 29.0 °F 30.6 in Calm   1 mph 50% 0.000 in
00:14 47.0 °F 29.0 °F 30.6 in Calm     49% 0.000 in
00:19 47.0 °F 29.0 °F 30.5 in Calm   2 mph 50% 0.000 in
00:24 47.0 °F 30.0 °F 30.5 in Calm     51% 0.000 in
00:29 46.0 °F 30.0 °F 30.6 in SE 1 mph 1 mph 53% 0.000 in
00:34 46.0 °F 29.0 °F 30.6 in Calm   2 mph 51% 0.000 in
00:39 46.0 °F 29.0 °F 30.6 in Calm     50% 0.000 in
00:44 47.0 °F 28.0 °F 30.6 in Calm   1 mph 49% 0.000 in
00:49 47.0 °F 29.0 °F 30.6 in Calm   4 mph 51% 0.000 in
00:54 47.0 °F 29.0 °F 30.6 in Calm   4 mph 50% 0.000 in
00:59 47.0 °F 29.0 °F 30.6 in SE 2 mph 4 mph 50% 0.000 in
01:04 47.0 °F 28.0 °F 30.6 in SSE 7 mph 8 mph 48% 0.000 in
01:09 47.0 °F 28.0 °F 30.6 in SSE 2 mph 4 mph 48% 0.000 in
01:14 47.0 °F 28.0 °F 30.6 in SE 2 mph 5 mph 48% 0.000 in
01:19 47.0 °F 28.0 °F 30.6 in SE 1 mph 5 mph 48% 0.000 in
01:24 47.0 °F 29.0 °F 30.6 in SE 1 mph 2 mph 49% 0.000 in
01:29 47.0 °F 28.0 °F 30.6 in SE 1 mph 2 mph 48% 0.000 in
01:34 47.0 °F 30.0 °F 30.6 in SE 1 mph 2 mph 51% 0.000 in
01:39 47.0 °F 30.0 °F 30.6 in Calm     51% 0.000 in
01:44 46.0 °F 30.0 °F 30.6 in Calm     52% 0.000 in
01:49 46.0 °F 30.0 °F 30.6 in Calm     54% 0.000 in
01:54 46.0 °F 29.0 °F 30.6 in SSE 4 mph 4 mph 51% 0.000 in
01:59 46.0 °F 30.0 °F 30.6 in Calm     52% 0.000 in
02:04 46.0 °F 30.0 °F 30.6 in SE 1 mph 2 mph 52% 0.000 in
02:09 46.0 °F 30.0 °F 30.5 in SE 1 mph 2 mph 53% 0.000 in
02:14 46.0 °F 30.0 °F 30.5 in Calm     53% 0.000 in
02:19 46.0 °F 29.0 °F 30.5 in SE 5 mph 5 mph 51% 0.000 in
02:24 46.0 °F 29.0 °F 30.5 in SE 4 mph 6 mph 51% 0.000 in
02:29 46.0 °F 29.0 °F 30.5 in SE 2 mph 5 mph 51% 0.000 in
02:34 46.0 °F 29.0 °F 30.5 in SE 2 mph 4 mph 51% 0.000 in
02:39 46.0 °F 29.0 °F 30.5 in Calm   2 mph 51% 0.000 in
02:44 46.0 °F 29.0 °F 30.5 in SE 1 mph 4 mph 51% 0.000 in
02:49 46.0 °F 29.0 °F 30.5 in SE 2 mph 4 mph 51% 0.000 in
02:54 46.0 °F 29.0 °F 30.5 in SSE 4 mph 5 mph 51% 0.000 in
02:59 46.0 °F 28.0 °F 30.5 in SE 1 mph 5 mph 50% 0.000 in
03:04 46.0 °F 29.0 °F 30.5 in ESE 1 mph 5 mph 51% 0.000 in
03:09 46.0 °F 28.0 °F 30.5 in SE 5 mph 6 mph 50% 0.000 in
03:14 46.0 °F 28.0 °F 30.5 in ESE 5 mph 7 mph 50% 0.000 in
03:19 46.0 °F 29.0 °F 30.5 in East 1 mph 4 mph 50% 0.000 in
03:24 46.0 °F 28.0 °F 30.5 in ESE 1 mph 4 mph 49% 0.000 in
03:29 47.0 °F 28.0 °F 30.5 in SE 2 mph 5 mph 49% 0.000 in
03:34 46.0 °F 29.0 °F 30.5 in SSE 1 mph 2 mph 50% 0.000 in
03:39 46.0 °F 28.0 °F 30.5 in SSE 1 mph 2 mph 49% 0.000 in
03:44 46.0 °F 28.0 °F 30.5 in SE 4 mph 4 mph 48% 0.000 in
03:49 47.0 °F 28.0 °F 30.5 in SSW 2 mph 4 mph 48% 0.000 in
03:54 47.0 °F 28.0 °F 30.5 in Calm   2 mph 48% 0.000 in
03:59 47.0 °F 28.0 °F 30.5 in SE 2 mph 4 mph 47% 0.000 in
04:04 47.0 °F 27.0 °F 30.5 in SSE 1 mph 4 mph 46% 0.000 in
04:09 47.0 °F 27.0 °F 30.5 in Calm   2 mph 46% 0.000 in
04:14 47.0 °F 28.0 °F 30.5 in Calm     47% 0.000 in
04:19 47.0 °F 28.0 °F 30.5 in Calm   1 mph 48% 0.000 in
04:24 46.0 °F 27.0 °F 30.5 in Calm   1 mph 47% 0.000 in
04:29 46.0 °F 28.0 °F 30.5 in Calm   2 mph 49% 0.000 in
04:34 46.0 °F 28.0 °F 30.5 in Calm   1 mph 49% 0.000 in
04:39 46.0 °F 27.0 °F 30.5 in Calm   1 mph 47% 0.000 in
04:44 47.0 °F 28.0 °F 30.5 in Calm   2 mph 49% 0.000 in
04:49 47.0 °F 28.0 °F 30.5 in Calm     48% 0.000 in
04:54 47.0 °F 27.0 °F 30.5 in ESE 4 mph 6 mph 46% 0.000 in
04:59 47.0 °F 26.0 °F 30.5 in Calm   6 mph 44% 0.000 in
05:04 47.0 °F 26.0 °F 30.5 in ESE 1 mph 5 mph 43% 0.000 in
05:09 47.0 °F 26.0 °F 30.5 in ESE 2 mph 2 mph 44% 0.000 in
05:14 47.0 °F 25.0 °F 30.5 in SE 4 mph 4 mph 42% 0.000 in
05:19 47.0 °F 26.0 °F 30.5 in ESE 1 mph 4 mph 43% 0.000 in
05:24 47.0 °F 24.0 °F 30.5 in ESE 4 mph 4 mph 41% 0.000 in
05:29 47.0 °F 26.0 °F 30.5 in ESE 2 mph 4 mph 44% 0.000 in
05:34 47.0 °F 24.0 °F 30.5 in ESE 1 mph 1 mph 41% 0.000 in
05:39 47.0 °F 25.0 °F 30.5 in Calm   2 mph 41% 0.000 in
05:44 47.0 °F 25.0 °F 30.5 in SE 1 mph 2 mph 41% 0.000 in
05:49 47.0 °F 26.0 °F 30.5 in Calm     44% 0.000 in
05:54 47.0 °F 26.0 °F 30.5 in Calm     44% 0.000 in
05:59 47.0 °F 26.0 °F 30.5 in Calm   1 mph 44% 0.000 in
06:04 47.0 °F 27.0 °F 30.5 in Calm   1 mph 45% 0.000 in
06:09 47.0 °F 26.0 °F 30.5 in Calm   1 mph 43% 0.000 in
06:14 47.0 °F 25.0 °F 30.5 in Calm   2 mph 42% 0.000 in
06:19 47.0 °F 25.0 °F 30.5 in Calm   1 mph 42% 0.000 in
06:24 47.0 °F 27.0 °F 30.5 in Calm   1 mph 46% 0.000 in
06:29 47.0 °F 26.0 °F 30.5 in SE 4 mph 4 mph 43% 0.000 in
06:34 47.0 °F 26.0 °F 30.5 in SE 1 mph 4 mph 43% 0.000 in
06:39 47.0 °F 26.0 °F 30.5 in SE 1 mph 4 mph 43% 0.000 in
06:44 47.0 °F 27.0 °F 30.5 in Calm     46% 0.000 in
06:49 47.0 °F 27.0 °F 30.5 in Calm   1 mph 46% 0.000 in
06:54 47.0 °F 28.0 °F 30.5 in ESE 4 mph 5 mph 47% 0.000 in
06:59 47.0 °F 27.0 °F 30.5 in ESE 2 mph 5 mph 46% 0.000 in
07:04 47.0 °F 28.0 °F 30.5 in Calm   1 mph 47% 0.000 in
07:09 47.0 °F 27.0 °F 30.5 in Calm   2 mph 46% 0.000 in
07:14 47.0 °F 28.0 °F 30.5 in Calm     48% 0.000 in
07:19 47.0 °F 27.0 °F 30.5 in Calm     46% 0.000 in
07:24 47.0 °F 28.0 °F 30.5 in ESE 2 mph 4 mph 48% 0.000 in
07:29 47.0 °F 26.0 °F 30.5 in Calm   1 mph 45% 0.000 in
07:34 47.0 °F 28.0 °F 30.5 in Calm     48% 0.000 in
07:39 47.0 °F 28.0 °F 30.5 in ESE 1 mph 1 mph 47% 0.000 in
07:44 47.0 °F 28.0 °F 30.5 in ESE 5 mph 5 mph 47% 0.000 in
07:49 47.0 °F 27.0 °F 30.5 in ESE 2 mph 2 mph 46% 0.000 in
07:54 47.0 °F 27.0 °F 30.5 in East 5 mph 5 mph 46% 0.000 in
07:59 47.0 °F 28.0 °F 30.5 in ESE 2 mph 4 mph 47% 0.000 in
08:04 47.0 °F 28.0 °F 30.5 in Calm   4 mph 47% 0.000 in
08:09 47.0 °F 27.0 °F 30.5 in SE 1 mph 2 mph 46% 0.000 in
08:14 47.0 °F 27.0 °F 30.5 in SE 4 mph 5 mph 46% 0.000 in
08:19 47.0 °F 27.0 °F 30.5 in SE 6 mph 8 mph 45% 0.000 in
08:24 47.0 °F 27.0 °F 30.5 in Calm   4 mph 46% 0.000 in
08:29 47.0 °F 27.0 °F 30.5 in Calm   2 mph 46% 0.000 in
08:34 47.0 °F 28.0 °F 30.5 in SE 4 mph 5 mph 48% 0.000 in
08:39 47.0 °F 27.0 °F 30.5 in ESE 8 mph 8 mph 45% 0.000 in
08:44 47.0 °F 28.0 °F 30.5 in Calm   4 mph 47% 0.000 in
08:49 47.0 °F 27.0 °F 30.5 in Calm   1 mph 46% 0.000 in
08:54 47.0 °F 28.0 °F 30.5 in Calm   1 mph 47% 0.000 in
08:59 47.0 °F 28.0 °F 30.5 in ESE 4 mph 5 mph 47% 0.000 in
09:04 47.0 °F 28.0 °F 30.5 in SE 2 mph 5 mph 47% 0.000 in
09:09 47.0 °F 27.0 °F 30.5 in SE 1 mph 5 mph 46% 0.000 in
09:14 47.0 °F 28.0 °F 30.5 in SE 2 mph 6 mph 47% 0.000 in
09:19 47.0 °F 28.0 °F 30.5 in SE 2 mph 6 mph 47% 0.000 in
09:24 47.0 °F 28.0 °F 30.5 in Calm   2 mph 48% 0.000 in
09:29 48.0 °F 28.0 °F 30.5 in Calm     48% 0.000 in
09:34 48.0 °F 28.0 °F 30.5 in ESE 4 mph 4 mph 47% 0.000 in
09:39 48.0 °F 27.0 °F 30.5 in ESE 1 mph 1 mph 45% 0.000 in
09:44 48.0 °F 28.0 °F 30.5 in ESE 1 mph 4 mph 45% 0.000 in
09:49 48.0 °F 28.0 °F 30.5 in SSE 1 mph 2 mph 46% 0.000 in
09:54 48.0 °F 29.0 °F 30.5 in SSE 1 mph 1 mph 46% 0.000 in
09:59 49.0 °F 28.0 °F 30.5 in ESE 5 mph 5 mph 44% 0.000 in
10:04 49.0 °F 28.0 °F 30.5 in East 2 mph 5 mph 44% 0.000 in
10:09 49.0 °F 27.0 °F 30.5 in East 3 mph 4 mph 43% 0.000 in
10:14 49.0 °F 27.0 °F 30.5 in East 1 mph 4 mph 43% 0.000 in
10:19 49.0 °F 27.0 °F 30.5 in East 4 mph 4 mph 42% 0.000 in
10:24 49.0 °F 27.0 °F 30.5 in ESE 1 mph 2 mph 42% 0.000 in
10:29 50.0 °F 28.0 °F 30.5 in Calm   5 mph 43% 0.000 in
10:34 50.0 °F 29.0 °F 30.5 in Calm   4 mph 44% 0.000 in
10:39 50.0 °F 29.0 °F 30.5 in SE 1 mph 4 mph 44% 0.000 in
10:44 50.0 °F 29.0 °F 30.5 in SE 2 mph 4 mph 44% 0.000 in
10:49 51.0 °F 30.0 °F 30.5 in SE 2 mph 4 mph 44% 0.000 in
10:54 51.0 °F 30.0 °F 30.5 in SE 1 mph 5 mph 44% 0.000 in
10:59 51.0 °F 30.0 °F 30.5 in SE 5 mph 5 mph 44% 0.000 in
11:04 51.0 °F 28.0 °F 30.5 in ESE 4 mph 5 mph 42% 0.000 in
11:09 51.0 °F 28.0 °F 30.5 in Calm   5 mph 42% 0.000 in
11:14 51.0 °F 28.0 °F 30.5 in East 2 mph 2 mph 42% 0.000 in
11:19 51.0 °F 29.0 °F 30.5 in Calm   4 mph 43% 0.000 in
11:24 51.0 °F 29.0 °F 30.5 in Calm     43% 0.000 in
11:29 51.0 °F 30.0 °F 30.5 in Calm     44% 0.000 in
11:34 51.0 °F 30.0 °F 30.5 in Calm     44% 0.000 in
11:39 51.0 °F 30.0 °F 30.5 in East 1 mph 1 mph 45% 0.000 in
11:44 51.0 °F 30.0 °F 30.5 in Calm   1 mph 45% 0.000 in
11:49 51.0 °F 30.0 °F 30.5 in ESE 1 mph 6 mph 44% 0.000 in
11:54 50.0 °F 29.0 °F 30.5 in SE 1 mph 4 mph 44% 0.000 in
11:59 50.0 °F 30.0 °F 30.5 in Calm   4 mph 45% 0.000 in
12:04 50.0 °F 30.0 °F 30.5 in Calm   4 mph 46% 0.000 in
12:09 51.0 °F 30.0 °F 30.5 in SE 2 mph 2 mph 45% 0.000 in
12:14 51.0 °F 30.0 °F 30.5 in SE 2 mph 4 mph 44% 0.000 in
12:19 51.0 °F 30.0 °F 30.5 in SE 1 mph 1 mph 45% 0.000 in
12:24 51.0 °F 30.0 °F 30.5 in SSE 4 mph 4 mph 45% 0.000 in
12:29 51.0 °F 30.0 °F 30.5 in SE 1 mph 5 mph 45% 0.000 in
12:34 51.0 °F 29.0 °F 30.5 in SE 2 mph 5 mph 43% 0.000 in
12:39 51.0 °F 30.0 °F 30.5 in SE 1 mph 4 mph 45% 0.000 in
12:44 51.0 °F 30.0 °F 30.5 in SE 4 mph 4 mph 45% 0.000 in
12:49 51.0 °F 30.0 °F 30.5 in SE 5 mph 7 mph 45% 0.000 in
12:54 51.0 °F 30.0 °F 30.5 in SE 5 mph 5 mph 45% 0.000 in
12:59 51.0 °F 30.0 °F 30.5 in ESE 1 mph 4 mph 45% 0.000 in
13:04 51.0 °F 30.0 °F 30.5 in East 4 mph 4 mph 45% 0.000 in
13:09 51.0 °F 30.0 °F 30.5 in East 4 mph 5 mph 45% 0.000 in
13:14 51.0 °F 30.0 °F 30.5 in East 2 mph 5 mph 45% 0.000 in
13:19 51.0 °F 30.0 °F 30.5 in Calm   1 mph 45% 0.000 in
13:24 51.0 °F 31.0 °F 30.5 in ESE 5 mph 5 mph 46% 0.000 in
13:29 51.0 °F 31.0 °F 30.5 in ESE 2 mph 5 mph 46% 0.000 in
13:34 51.0 °F 30.0 °F 30.5 in ESE 1 mph 2 mph 45% 0.000 in
13:39 51.0 °F 31.0 °F 30.5 in ESE 1 mph 2 mph 46% 0.000 in
13:44 51.0 °F 31.0 °F 30.5 in SSE 4 mph 5 mph 46% 0.000 in
13:49 51.0 °F 31.0 °F 30.4 in Calm   1 mph 46% 0.000 in
13:54 51.0 °F 31.0 °F 30.5 in SE 2 mph 2 mph 46% 0.000 in
13:59 51.0 °F 31.0 °F 30.5 in Calm   2 mph 47% 0.000 in
14:04 51.0 °F 32.0 °F 30.4 in Calm     48% 0.000 in
14:09 51.0 °F 32.0 °F 30.4 in Calm     48% 0.000 in
14:14 51.0 °F 31.0 °F 30.4 in SE 1 mph 1 mph 47% 0.000 in
14:19 51.0 °F 32.0 °F 30.4 in Calm   1 mph 48% 0.000 in
14:24 51.0 °F 32.0 °F 30.4 in Calm   1 mph 47% 0.000 in
14:29 51.0 °F 32.0 °F 30.4 in SE 1 mph 1 mph 48% 0.000 in
14:34 51.0 °F 32.0 °F 30.4 in Calm   1 mph 47% 0.000 in
14:39 51.0 °F 32.0 °F 30.4 in Calm     48% 0.000 in
14:44 51.0 °F 33.0 °F 30.4 in Calm     49% 0.000 in
14:49 51.0 °F 32.0 °F 30.4 in Calm   1 mph 48% 0.000 in
14:54 51.0 °F 32.0 °F 30.4 in Calm     48% 0.000 in
14:59 51.0 °F 33.0 °F 30.4 in Calm     49% 0.000 in
15:04 51.0 °F 33.0 °F 30.4 in Calm     49% 0.000 in
15:09 51.0 °F 33.0 °F 30.4 in Calm     49% 0.000 in
15:14 51.0 °F 33.0 °F 30.4 in Calm   1 mph 49% 0.000 in
15:19 51.0 °F 33.0 °F 30.4 in SE 1 mph 1 mph 49% 0.000 in
15:24 51.0 °F 33.0 °F 30.4 in Calm   1 mph 49% 0.000 in
15:29 51.0 °F 33.0 °F 30.4 in Calm     49% 0.000 in
15:34 51.0 °F 34.0 °F 30.4 in Calm     51% 0.000 in
15:39 51.0 °F 34.0 °F 30.5 in Calm     51% 0.000 in
15:44 51.0 °F 33.0 °F 30.5 in Calm     50% 0.000 in
15:49 51.0 °F 33.0 °F 30.5 in Calm     49% 0.000 in
15:54 51.0 °F 33.0 °F 30.5 in Calm     49% 0.000 in
15:59 51.0 °F 34.0 °F 30.5 in Calm     51% 0.000 in
16:04 51.0 °F 33.0 °F 30.5 in SE 1 mph 1 mph 50% 0.000 in
16:09 51.0 °F 34.0 °F 30.4 in Calm     51% 0.000 in
16:14 51.0 °F 33.0 °F 30.5 in Calm     50% 0.000 in
16:19 51.0 °F 33.0 °F 30.5 in Calm   1 mph 50% 0.000 in
16:24 51.0 °F 33.0 °F 30.4 in Calm     50% 0.000 in
16:29 51.0 °F 33.0 °F 30.5 in Calm     51% 0.000 in
16:34 51.0 °F 34.0 °F 30.5 in Calm     53% 0.000 in
16:39 51.0 °F 34.0 °F 30.4 in Calm     52% 0.000 in
16:44 51.0 °F 34.0 °F 30.5 in SE 1 mph 1 mph 53% 0.000 in
16:49 50.0 °F 34.0 °F 30.5 in Calm   2 mph 54% 0.000 in
16:54 50.0 °F 34.0 °F 30.5 in Calm     53% 0.000 in
16:59 50.0 °F 34.0 °F 30.5 in Calm     53% 0.000 in
17:04 50.0 °F 35.0 °F 30.5 in Calm     57% 0.000 in
17:09 50.0 °F 35.0 °F 30.5 in Calm     57% 0.000 in
17:14 50.0 °F 35.0 °F 30.4 in Calm     57% 0.000 in
17:19 50.0 °F 36.0 °F 30.5 in Calm     59% 0.000 in
17:24 50.0 °F 36.0 °F 30.5 in Calm     59% 0.000 in
17:29 50.0 °F 36.0 °F 30.5 in Calm     60% 0.000 in
17:34 49.0 °F 36.0 °F 30.5 in Calm     60% 0.000 in
17:39 49.0 °F 35.0 °F 30.5 in Calm     59% 0.000 in
17:44 49.0 °F 35.0 °F 30.5 in Calm     59% 0.000 in
17:49 49.0 °F 36.0 °F 30.5 in Calm     61% 0.000 in
17:54 49.0 °F 35.0 °F 30.5 in Calm     60% 0.000 in
17:59 49.0 °F 35.0 °F 30.5 in Calm     60% 0.000 in
18:04 49.0 °F 35.0 °F 30.5 in Calm     59% 0.000 in
18:09 48.0 °F 34.0 °F 30.5 in Calm     58% 0.000 in
18:14 48.0 °F 34.0 °F 30.5 in Calm   1 mph 58% 0.000 in
18:19 48.0 °F 35.0 °F 30.5 in Calm     59% 0.000 in
18:24 48.0 °F 35.0 °F 30.5 in Calm     59% 0.000 in
18:29 48.0 °F 34.0 °F 30.5 in Calm     57% 0.000 in
18:34 48.0 °F 34.0 °F 30.5 in Calm     59% 0.000 in
18:39 48.0 °F 35.0 °F 30.5 in Calm     60% 0.000 in
18:44 48.0 °F 34.0 °F 30.5 in Calm     58% 0.000 in
18:49 48.0 °F 34.0 °F 30.5 in Calm     58% 0.000 in
18:54 48.0 °F 33.0 °F 30.5 in Calm     57% 0.000 in
18:59 48.0 °F 35.0 °F 30.5 in Calm     62% 0.000 in
19:04 48.0 °F 36.0 °F 30.5 in Calm     63% 0.000 in
19:09 48.0 °F 36.0 °F 30.5 in Calm     63% 0.000 in
19:14 48.0 °F 36.0 °F 30.5 in Calm     63% 0.000 in
19:19 47.0 °F 35.0 °F 30.4 in Calm     62% 0.000 in
19:24 47.0 °F 35.0 °F 30.4 in Calm     64% 0.000 in
19:29 47.0 °F 35.0 °F 30.4 in Calm     64% 0.000 in
19:34 47.0 °F 35.0 °F 30.4 in Calm     64% 0.000 in
19:39 47.0 °F 35.0 °F 30.4 in Calm     63% 0.000 in
19:44 46.0 °F 35.0 °F 30.4 in Calm     64% 0.000 in
19:49 46.0 °F 35.0 °F 30.4 in Calm     65% 0.000 in
19:54 46.0 °F 35.0 °F 30.4 in Calm     63% 0.000 in
19:59 46.0 °F 35.0 °F 30.4 in Calm     64% 0.000 in
20:04 46.0 °F 35.0 °F 30.4 in Calm     64% 0.000 in
20:09 47.0 °F 35.0 °F 30.4 in Calm   1 mph 63% 0.000 in
20:14 47.0 °F 35.0 °F 30.4 in Calm     63% 0.000 in
20:19 47.0 °F 35.0 °F 30.4 in Calm     64% 0.000 in
20:24 47.0 °F 36.0 °F 30.4 in Calm     65% 0.000 in
20:29 47.0 °F 35.0 °F 30.4 in Calm     65% 0.000 in
20:34 46.0 °F 35.0 °F 30.4 in Calm     65% 0.000 in
20:39 46.0 °F 34.0 °F 30.4 in Calm     63% 0.000 in
20:44 46.0 °F 35.0 °F 30.4 in Calm     64% 0.000 in
20:49 46.0 °F 36.0 °F 30.4 in Calm     67% 0.000 in
20:54 46.0 °F 36.0 °F 30.4 in Calm   1 mph 68% 0.000 in
20:59 46.0 °F 36.0 °F 30.4 in Calm   1 mph 67% 0.000 in
21:04 46.0 °F 36.0 °F 30.4 in SE 1 mph 2 mph 69% 0.000 in
21:09 46.0 °F 36.0 °F 30.4 in Calm   2 mph 68% 0.000 in
21:14 46.0 °F 36.0 °F 30.4 in Calm     68% 0.000 in
21:19 46.0 °F 36.0 °F 30.4 in SE 1 mph 2 mph 68% 0.000 in
21:24 46.0 °F 36.0 °F 30.4 in Calm   1 mph 69% 0.000 in
21:29 45.0 °F 37.0 °F 30.4 in Calm   1 mph 71% 0.000 in
21:34 45.0 °F 37.0 °F 30.4 in Calm     72% 0.000 in
21:39 45.0 °F 37.0 °F 30.4 in Calm     72% 0.000 in
21:44 45.0 °F 37.0 °F 30.4 in Calm     72% 0.000 in
21:49 45.0 °F 36.0 °F 30.4 in Calm     69% 0.000 in
21:54 45.0 °F 36.0 °F 30.4 in Calm     69% 0.000 in
21:59 45.0 °F 37.0 °F 30.4 in Calm     72% 0.000 in
22:04 45.0 °F 36.0 °F 30.4 in Calm     71% 0.000 in
22:09 45.0 °F 36.0 °F 30.4 in Calm     71% 0.000 in
22:14 45.0 °F 36.0 °F 30.4 in Calm     71% 0.000 in
22:19 45.0 °F 37.0 °F 30.4 in Calm     72% 0.000 in
22:24 45.0 °F 37.0 °F 30.4 in Calm     72% 0.000 in
22:29 45.0 °F 37.0 °F 30.4 in Calm     72% 0.000 in
22:34 45.0 °F 37.0 °F 30.4 in Calm     72% 0.000 in
22:39 45.0 °F 37.0 °F 30.4 in Calm     73% 0.000 in
22:44 45.0 °F 37.0 °F 30.4 in Calm     74% 0.000 in
22:49 45.0 °F 37.0 °F 30.4 in Calm     74% 0.000 in
22:54 45.0 °F 37.0 °F 30.4 in Calm     74% 0.000 in
22:59 45.0 °F 37.0 °F 30.4 in Calm     74% 0.000 in
23:04 45.0 °F 37.0 °F 30.4 in Calm     74% 0.000 in
23:09 45.0 °F 38.0 °F 30.4 in Calm     75% 0.000 in
23:14 45.0 °F 38.0 °F 30.4 in Calm     75% 0.000 in
23:19 45.0 °F 37.0 °F 30.4 in Calm     74% 0.000 in
23:24 45.0 °F 38.0 °F 30.4 in Calm     74% 0.000 in
23:29 45.0 °F 37.0 °F 30.4 in Calm     73% 0.000 in
23:34 46.0 °F 36.0 °F 30.4 in Calm     70% 0.000 in
23:39 46.0 °F 38.0 °F 30.4 in Calm     73% 0.000 in
23:44 46.0 °F 37.0 °F 30.4 in Calm     72% 0.000 in
23:49 46.0 °F 36.0 °F 30.4 in Calm     69% 0.000 in
23:54 46.0 °F 36.0 °F 30.4 in Calm     68% 0.000 in
23:59 46.0 °F 35.0 °F 30.4 in Calm     66% 0.000 in
East Ellijay Weather
Compliments of Weather Underground - 2 mb